Time;durP1;ratioP1;P1;durP2;ratioP2;P2;SDS_P1;SDS_P2;PMS_P1;PMS_P2;Temp;Humidity;BMP_temperature;BMP_pressure;BME280_temperature;BME280_humidity;BME280_pressure;Samples;Min_cycle;Max_cycle;Signal;HPM_P1;HPM_P2
2023/05/03 00:00:00;;;;;;;9.38;3.55;;;;;;;4.13;74.42;102834.88;6102376;23;20451;-66
2023/05/03 00:02:26;;;;;;;8.07;3.70;;;;;;;4.02;75.24;102830.91;6079375;23;20010;-66
2023/05/03 00:04:53;;;;;;;8.20;3.50;;;;;;;4.02;74.82;102825.69;6076349;23;20096;-65
2023/05/03 00:07:19;;;;;;;6.80;3.47;;;;;;;3.97;75.17;102835.00;6100963;23;20076;-66
2023/05/03 00:09:44;;;;;;;8.75;3.50;;;;;;;3.97;76.44;102827.22;6127262;23;20001;-66
2023/05/03 00:12:10;;;;;;;7.80;3.78;;;;;;;3.97;76.15;102827.22;6079045;23;20356;-65
2023/05/03 00:14:35;;;;;;;6.75;3.60;;;;;;;3.96;76.14;102825.44;6103425;23;20341;-66
2023/05/03 00:17:02;;;;;;;10.00;3.55;;;;;;;3.98;76.90;102829.88;6079666;23;20095;-66
2023/05/03 00:19:31;;;;;;;6.78;4.13;;;;;;;3.95;75.86;102828.81;6079174;23;20014;-65
2023/05/03 00:21:57;;;;;;;8.50;3.92;;;;;;;3.89;76.64;102824.22;6080233;23;20024;-66
2023/05/03 00:24:23;;;;;;;7.20;3.83;;;;;;;3.86;76.19;102824.09;6103164;23;20344;-66
2023/05/03 00:26:48;;;;;;;8.02;3.75;;;;;;;3.86;76.10;102824.09;6127550;23;20001;-65
2023/05/03 00:29:14;;;;;;;8.05;3.83;;;;;;;3.83;76.21;102820.47;6154220;23;20025;-66
2023/05/03 00:31:42;;;;;;;10.48;3.85;;;;;;;3.82;76.85;102824.75;6081279;23;20029;-66
2023/05/03 00:34:08;;;;;;;7.47;3.92;;;;;;;3.76;76.50;102822.75;6105955;23;20387;-65
2023/05/03 00:36:33;;;;;;;7.90;4.10;;;;;;;3.68;77.11;102829.31;6080456;23;20010;-66
2023/05/03 00:38:58;;;;;;;10.00;4.20;;;;;;;3.69;77.04;102825.88;6106176;23;20016;-65
2023/05/03 00:41:25;;;;;;;9.27;3.97;;;;;;;3.68;77.78;102828.38;6081138;23;20049;-65
2023/05/03 00:43:51;;;;;;;8.57;4.30;;;;;;;3.65;77.79;102821.38;6129421;23;20012;-65
2023/05/03 00:46:16;;;;;;;11.15;3.92;;;;;;;3.67;77.23;102824.91;6105839;23;20013;-66
2023/05/03 00:48:43;;;;;;;6.65;4.00;;;;;;;3.64;77.27;102822.19;6081357;23;20080;-65
2023/05/03 00:51:13;;;;;;;8.48;3.65;;;;;;;3.60;77.90;102828.03;6128851;23;20006;-65
2023/05/03 00:53:40;;;;;;;7.93;4.13;;;;;;;3.55;77.51;102827.81;6130242;23;20055;-65
2023/05/03 00:56:05;;;;;;;12.18;3.90;;;;;;;3.53;77.46;102837.19;6081961;23;20010;-65
2023/05/03 00:58:32;;;;;;;7.47;3.72;;;;;;;3.50;78.50;102833.59;6082118;23;20017;-65
2023/05/03 01:00:57;;;;;;;8.35;4.20;;;;;;;3.45;78.63;102831.66;6081649;23;20036;-66
2023/05/03 01:03:23;;;;;;;7.00;3.58;;;;;;;3.42;78.54;102825.41;6080851;23;20005;-66
2023/05/03 01:06:13;;;;;;;7.63;3.90;;;;;;;3.40;79.16;102827.94;6080192;23;20009;-65
2023/05/03 01:08:51;;;;;;;7.90;4.13;;;;;;;3.36;78.99;102819.94;6129229;23;20018;-65
2023/05/03 01:11:23;;;;;;;6.05;4.00;;;;;;;3.31;78.86;102817.13;6128601;23;20332;-65
2023/05/03 01:14:22;;;;;;;7.05;4.10;;;;;;;3.30;78.75;102817.91;6129116;23;20010;-65
2023/05/03 01:17:04;;;;;;;6.13;3.72;;;;;;;3.29;79.05;102818.75;6129212;23;20013;-65
2023/05/03 01:19:36;;;;;;;6.05;3.80;;;;;;;3.22;79.53;102820.13;6129422;23;20009;-65
2023/05/03 01:22:16;;;;;;;8.75;4.20;;;;;;;3.24;79.84;102817.63;6128957;23;20041;-72
2023/05/03 01:24:50;;;;;;;7.25;4.10;;;;;;;3.19;80.36;102819.06;6126134;23;20012;-72
2023/05/03 01:27:15;;;;;;;7.40;4.05;;;;;;;3.16;80.55;102825.03;6128707;23;20119;-72
2023/05/03 01:29:41;;;;;;;10.15;4.45;;;;;;;3.15;80.37;102820.66;6104462;23;20420;-72
2023/05/03 01:32:18;;;;;;;7.35;3.85;;;;;;;3.14;79.56;102823.16;6080802;23;20010;-72
2023/05/03 01:35:14;;;;;;;11.05;4.18;;;;;;;3.12;79.84;102833.44;6127963;23;20012;-72
2023/05/03 01:37:41;;;;;;;9.02;4.22;;;;;;;3.07;80.32;102842.66;6155140;23;20519;-72
2023/05/03 01:40:09;;;;;;;8.07;4.32;;;;;;;3.07;80.59;102833.19;6128521;23;20040;-72
2023/05/03 01:42:38;;;;;;;7.18;4.43;;;;;;;3.06;81.40;102830.53;6127594;23;20140;-72
2023/05/03 01:45:04;;;;;;;11.85;4.47;;;;;;;3.02;81.60;102824.31;6128113;23;20005;-72
2023/05/03 01:47:30;;;;;;;8.75;4.60;;;;;;;3.07;81.14;102828.00;6127654;23;20018;-72
2023/05/03 01:49:55;;;;;;;8.55;4.35;;;;;;;3.02;81.35;102826.91;6103553;23;20014;-72
2023/05/03 01:52:22;;;;;;;9.77;4.32;;;;;;;3.03;80.88;102835.53;6103447;23;20005;-72
2023/05/03 01:54:47;;;;;;;7.88;4.50;;;;;;;3.01;80.76;102842.38;6103374;23;20072;-72
2023/05/03 01:57:13;;;;;;;10.40;4.43;;;;;;;2.97;80.55;102830.94;6080719;23;20017;-72
2023/05/03 01:59:38;;;;;;;10.18;3.95;;;;;;;2.98;81.04;102827.56;6103846;23;20088;-73
2023/05/03 02:02:04;;;;;;;9.73;4.65;;;;;;;2.97;80.94;102828.34;6102159;23;20017;-72
2023/05/03 02:04:29;;;;;;;8.50;4.72;;;;;;;2.97;80.94;102835.25;6078973;23;20456;-72
2023/05/03 02:06:54;;;;;;;10.88;4.63;;;;;;;2.92;81.26;102832.44;6127188;23;20005;-73
2023/05/03 02:09:21;;;;;;;8.48;4.63;;;;;;;2.91;80.70;102830.63;6104267;23;20009;-72
2023/05/03 02:11:47;;;;;;;9.63;4.45;;;;;;;2.93;81.23;102831.59;6127268;23;20006;-72
2023/05/03 02:14:12;;;;;;;10.82;4.90;;;;;;;2.95;81.46;102836.03;6128271;23;20009;-72
2023/05/03 02:16:38;;;;;;;9.52;4.60;;;;;;;2.95;81.65;102828.28;6078409;23;20088;-72
2023/05/03 02:19:04;;;;;;;10.68;4.70;;;;;;;2.92;81.76;102835.00;6103950;23;20013;-72
2023/05/03 02:21:30;;;;;;;10.73;4.70;;;;;;;2.88;80.91;102830.47;6103816;23;20491;-72
2023/05/03 02:23:55;;;;;;;9.32;4.80;;;;;;;2.86;81.16;102826.91;6104280;23;20036;-72
2023/05/03 02:26:21;;;;;;;10.63;4.38;;;;;;;2.87;82.29;102826.09;6080698;23;20009;-71
2023/05/03 02:28:46;;;;;;;9.93;5.10;;;;;;;2.89;82.02;102829.69;6079867;23;20013;-72
2023/05/03 02:31:14;;;;;;;8.43;5.03;;;;;;;2.87;81.50;102824.38;6080103;23;20336;-72
2023/05/03 02:33:40;;;;;;;10.10;5.22;;;;;;;2.87;82.09;102818.34;6105264;23;20005;-72
2023/05/03 02:36:06;;;;;;;10.05;4.97;;;;;;;2.84;82.39;102819.06;6079624;23;20482;-72
2023/05/03 02:38:32;;;;;;;9.70;4.80;;;;;;;2.84;82.10;102813.00;6128565;23;20068;-72
2023/05/03 02:40:58;;;;;;;9.10;5.47;;;;;;;2.81;82.74;102810.25;6127808;23;20455;-72
2023/05/03 02:43:24;;;;;;;10.57;5.30;;;;;;;2.75;83.25;102798.75;6104679;23;20306;-72
2023/05/03 02:45:50;;;;;;;8.13;4.93;;;;;;;2.76;82.39;102797.97;6104857;23;20013;-72
2023/05/03 02:48:15;;;;;;;13.63;5.13;;;;;;;2.75;81.84;102792.69;6104444;23;20045;-72
2023/05/03 02:50:41;;;;;;;9.43;5.32;;;;;;;2.73;82.09;102795.22;6103495;23;20028;-72
2023/05/03 02:53:07;;;;;;;10.70;5.50;;;;;;;2.71;83.14;102791.63;6104566;23;20105;-72
2023/05/03 02:55:33;;;;;;;12.98;5.40;;;;;;;2.72;82.51;102787.38;6129039;23;20340;-72
2023/05/03 02:57:58;;;;;;;9.80;5.47;;;;;;;2.68;83.31;102781.13;6129468;23;20016;-72
2023/05/03 03:00:27;;;;;;;9.90;5.38;;;;;;;2.69;83.23;102771.69;6081084;23;20056;-73
2023/05/03 03:02:52;;;;;;;10.98;5.82;;;;;;;2.69;82.63;102767.38;6101497;23;20010;-74
2023/05/03 03:05:18;;;;;;;7.60;5.38;;;;;;;2.69;82.13;102759.63;6102469;23;20013;-74
2023/05/03 03:07:43;;;;;;;11.68;5.35;;;;;;;2.70;83.23;102761.41;6128679;23;20046;-74
2023/05/03 03:10:09;;;;;;;11.15;5.60;;;;;;;2.69;82.09;102762.22;6079154;23;20056;-74
2023/05/03 03:12:35;;;;;;;9.48;5.60;;;;;;;2.71;82.14;102764.88;6102710;23;20005;-75
2023/05/03 03:15:01;;;;;;;12.88;5.60;;;;;;;2.72;82.71;102764.94;6102292;23;20138;-74
2023/05/03 03:17:26;;;;;;;11.93;5.30;;;;;;;2.74;82.57;102781.47;6078773;23;20101;-74
2023/05/03 03:19:52;;;;;;;10.88;5.72;;;;;;;2.77;82.86;102786.81;6127305;23;20010;-74
2023/05/03 03:22:17;;;;;;;10.85;5.88;;;;;;;2.78;82.75;102787.69;6078926;23;20025;-74
2023/05/03 03:24:43;;;;;;;13.63;5.95;;;;;;;2.81;82.56;102781.78;6079517;23;20063;-74
2023/05/03 03:27:12;;;;;;;11.68;5.78;;;;;;;2.79;82.75;102786.88;6103528;23;20179;-74
2023/05/03 03:29:37;;;;;;;9.98;6.30;;;;;;;2.80;83.47;102790.34;6103435;23;20013;-74
2023/05/03 03:32:03;;;;;;;11.73;5.88;;;;;;;2.81;82.26;102795.59;6079373;23;20092;-74
2023/05/03 03:34:28;;;;;;;11.23;6.32;;;;;;;2.81;82.25;102803.38;6079496;23;20013;-74
2023/05/03 03:36:54;;;;;;;10.25;5.45;;;;;;;2.80;82.39;102795.53;6099455;23;20017;-75
2023/05/03 03:39:19;;;;;;;8.40;4.97;;;;;;;2.82;82.42;102799.09;6103350;23;20109;-74
2023/05/03 03:41:45;;;;;;;13.10;5.90;;;;;;;2.77;82.59;102797.16;6103278;23;20013;-74
2023/05/03 03:44:10;;;;;;;14.40;6.53;;;;;;;2.78;81.65;102798.91;6080417;23;20506;-75
2023/05/03 03:46:36;;;;;;;8.70;5.90;;;;;;;2.79;82.02;102799.81;6103186;23;20013;-74
2023/05/03 03:49:01;;;;;;;11.45;5.85;;;;;;;2.76;82.69;102789.31;6103576;23;20021;-74
2023/05/03 03:51:27;;;;;;;8.88;5.57;;;;;;;2.76;82.42;102792.78;6078776;23;20010;-74
2023/05/03 03:53:52;;;;;;;12.63;6.15;;;;;;;2.73;82.09;102786.53;6103669;23;20423;-74
2023/05/03 03:56:18;;;;;;;11.93;6.25;;;;;;;2.73;82.18;102787.44;6103494;23;20009;-74
2023/05/03 03:58:43;;;;;;;9.40;5.40;;;;;;;2.71;82.17;102786.47;6080112;23;20013;-74
2023/05/03 04:01:09;;;;;;;12.35;6.07;;;;;;;2.70;82.34;102787.28;6078171;23;20009;-74
2023/05/03 04:03:34;;;;;;;13.45;5.57;;;;;;;2.67;83.01;102779.38;6078415;23;20017;-74
2023/05/03 04:06:00;;;;;;;10.02;6.22;;;;;;;2.68;82.89;102778.53;6100749;23;20459;-74
2023/05/03 04:08:25;;;;;;;12.38;6.25;;;;;;;2.68;82.69;102794.06;6101969;23;20009;-74
2023/05/03 04:10:51;;;;;;;11.77;5.70;;;;;;;2.67;82.99;102792.31;6101659;23;20125;-74
2023/05/03 04:13:16;;;;;;;10.02;6.32;;;;;;;2.66;82.96;102798.28;6102410;23;20017;-74
2023/05/03 04:15:41;;;;;;;9.07;5.50;;;;;;;2.64;83.12;102793.84;6077134;23;20009;-74
2023/05/03 04:18:07;;;;;;;11.35;5.68;;;;;;;2.63;82.71;102800.72;6077439;23;20375;-74
2023/05/03 04:20:33;;;;;;;10.70;6.45;;;;;;;2.62;83.05;102801.53;6100847;23;20013;-74
2023/05/03 04:22:59;;;;;;;11.52;6.35;;;;;;;2.63;82.52;102805.00;6077976;23;20009;-74
2023/05/03 04:25:24;;;;;;;10.13;6.05;;;;;;;2.59;82.21;102803.97;6102151;23;20017;-73
2023/05/03 04:27:50;;;;;;;11.80;5.90;;;;;;;2.57;82.32;102809.06;6078190;23;20013;-75
2023/05/03 04:30:16;;;;;;;12.50;6.13;;;;;;;2.58;82.53;102810.81;6102816;23;20001;-74
2023/05/03 04:32:42;;;;;;;9.75;6.00;;;;;;;2.59;82.95;102809.13;6077646;23;20016;-75
2023/05/03 04:35:09;;;;;;;9.40;6.00;;;;;;;2.64;83.11;102814.53;6075990;23;20017;-74
2023/05/03 04:37:41;;;;;;;10.75;6.47;;;;;;;2.66;83.34;102807.75;6102892;23;20364;-74
2023/05/03 04:40:08;;;;;;;11.88;6.00;;;;;;;2.68;83.23;102812.19;6079005;23;20197;-75
2023/05/03 04:42:37;;;;;;;9.30;5.90;;;;;;;2.74;83.11;102820.31;6079886;23;20017;-74
2023/05/03 04:45:05;;;;;;;9.40;6.18;;;;;;;2.80;83.57;102824.00;6079391;23;20499;-75
2023/05/03 04:47:31;;;;;;;12.50;6.53;;;;;;;2.89;84.05;102827.97;6126715;23;20013;-74
2023/05/03 04:49:57;;;;;;;11.23;6.05;;;;;;;3.01;83.43;102832.00;6103012;23;20022;-74
2023/05/03 04:52:22;;;;;;;12.15;5.82;;;;;;;3.10;83.09;102841.13;6079117;23;20340;-74
2023/05/03 04:54:48;;;;;;;12.40;6.07;;;;;;;3.23;83.36;102833.97;6103532;23;20072;-74
2023/05/03 04:57:13;;;;;;;8.65;5.75;;;;;;;3.34;82.12;102843.19;6078422;23;20020;-75
2023/05/03 04:59:39;;;;;;;10.70;6.18;;;;;;;3.47;82.05;102839.50;6078907;23;20006;-74
2023/05/03 05:02:04;;;;;;;12.05;5.85;;;;;;;3.60;83.16;102851.38;6103262;23;20412;-75
2023/05/03 05:04:29;;;;;;;13.02;6.18;;;;;;;3.74;81.78;102850.34;6079547;23;20040;-74
2023/05/03 05:06:55;;;;;;;9.60;6.00;;;;;;;3.93;81.67;102859.00;6152137;23;20036;-75
2023/05/03 05:09:23;;;;;;;9.95;5.43;;;;;;;4.10;80.54;102871.06;6102579;23;20396;-75
2023/05/03 05:11:49;;;;;;;11.68;6.00;;;;;;;4.36;81.02;102871.41;6125891;23;20013;-75
2023/05/03 05:14:14;;;;;;;13.45;6.38;;;;;;;4.57;80.91;102865.41;6126403;23;20432;-75
2023/05/03 05:16:40;;;;;;;9.43;5.28;;;;;;;4.71;80.56;102869.53;6102771;23;20013;-75
2023/05/03 05:19:06;;;;;;;11.15;5.70;;;;;;;4.82;77.72;102860.50;6104574;23;20021;-74
2023/05/03 05:21:32;;;;;;;8.73;5.60;;;;;;;5.01;78.21;102867.44;6103087;23;20392;-74
2023/05/03 05:23:58;;;;;;;12.55;5.90;;;;;;;5.24;78.74;102869.22;6079278;23;20014;-75
2023/05/03 05:26:24;;;;;;;10.40;6.05;;;;;;;5.40;77.17;102871.63;6103092;23;20452;-75
2023/05/03 05:28:50;;;;;;;10.10;5.20;;;;;;;5.54;75.64;102873.09;6104379;23;20339;-74
2023/05/03 05:31:16;;;;;;;12.02;6.03;;;;;;;5.73;75.94;102871.25;6101356;23;20129;-75
2023/05/03 05:33:41;;;;;;;12.30;5.28;;;;;;;6.03;74.40;102861.25;6103823;23;20017;-75
2023/05/03 05:36:07;;;;;;;10.70;6.00;;;;;;;6.18;74.80;102871.38;6102364;23;20394;-74
2023/05/03 05:38:32;;;;;;;10.55;5.70;;;;;;;6.35;73.57;102877.25;6104784;23;20475;-74
2023/05/03 05:40:58;;;;;;;10.50;5.63;;;;;;;6.50;72.31;102876.03;6102132;23;20083;-74
2023/05/03 05:43:23;;;;;;;9.63;4.95;;;;;;;6.74;72.56;102873.47;6103276;23;20012;-74
2023/05/03 05:45:49;;;;;;;10.85;5.43;;;;;;;6.80;71.65;102871.09;6079297;23;20010;-74
2023/05/03 05:48:14;;;;;;;11.43;5.70;;;;;;;7.10;72.42;102868.69;6080756;23;20022;-74
2023/05/03 05:50:40;;;;;;;9.95;4.85;;;;;;;7.24;70.39;102870.88;6079873;23;20053;-74
2023/05/03 05:53:07;;;;;;;8.57;4.95;;;;;;;7.42;69.69;102870.63;6080803;23;20036;-74
2023/05/03 05:55:33;;;;;;;11.32;5.20;;;;;;;7.41;68.03;102874.97;6081618;23;20067;-74
2023/05/03 05:57:58;;;;;;;8.02;4.80;;;;;;;7.67;67.40;102881.88;6104821;23;20010;-74
2023/05/03 06:00:24;;;;;;;10.93;5.03;;;;;;;7.76;67.03;102884.81;6104751;23;20536;-74
2023/05/03 06:02:50;;;;;;;12.10;4.60;;;;;;;7.70;65.85;102885.50;6081425;23;20032;-75
2023/05/03 06:05:15;;;;;;;9.60;5.25;;;;;;;7.84;65.68;102882.44;6080140;23;20022;-75
2023/05/03 06:07:41;;;;;;;11.18;4.95;;;;;;;7.92;65.84;102881.84;6105280;23;20428;-74
2023/05/03 06:10:07;;;;;;;9.32;5.35;;;;;;;8.07;65.81;102891.00;6080269;23;20017;-74
2023/05/03 06:12:32;;;;;;;14.73;5.20;;;;;;;8.17;66.91;102884.34;6104799;23;20011;-74
2023/05/03 06:14:57;;;;;;;8.90;5.10;;;;;;;8.43;65.97;102879.91;6128942;23;20017;-74
2023/05/03 06:17:24;;;;;;;10.98;4.75;;;;;;;8.64;64.92;102872.72;6080967;23;20010;-75
2023/05/03 06:19:50;;;;;;;9.10;4.85;;;;;;;8.70;64.58;102871.13;6080861;23;20015;-74
2023/05/03 06:22:15;;;;;;;8.93;5.30;;;;;;;8.89;64.03;102873.41;6103402;23;20013;-74
2023/05/03 06:24:40;;;;;;;7.55;4.90;;;;;;;9.06;63.46;102873.00;6104581;23;20009;-74
2023/05/03 06:27:06;;;;;;;11.95;5.47;;;;;;;9.16;62.83;102869.78;6079352;23;20006;-74
2023/05/03 06:29:32;;;;;;;9.15;4.85;;;;;;;9.33;61.97;102872.84;6079711;23;20152;-74
2023/05/03 06:31:57;;;;;;;11.32;4.93;;;;;;;9.51;61.97;102870.72;6103474;23;20009;-74
2023/05/03 06:34:24;;;;;;;9.27;4.60;;;;;;;9.62;60.36;102883.19;6128930;23;20002;-74
2023/05/03 06:36:50;;;;;;;8.50;4.40;;;;;;;9.73;61.16;102867.75;6127563;23;20056;-75
2023/05/03 06:39:17;;;;;;;9.98;5.28;;;;;;;9.67;60.85;102861.50;6154261;23;20002;-74
2023/05/03 06:41:42;;;;;;;9.02;4.93;;;;;;;9.87;62.91;102863.72;6104141;23;20443;-74
2023/05/03 06:44:08;;;;;;;9.55;4.45;;;;;;;9.99;60.59;102865.75;6104454;23;20017;-74
2023/05/03 06:46:34;;;;;;;9.07;5.07;;;;;;;10.03;61.45;102860.59;6104197;23;20033;-74
2023/05/03 06:48:59;;;;;;;8.48;4.85;;;;;;;10.19;60.58;102858.34;6128347;23;20041;-74
2023/05/03 06:51:27;;;;;;;11.27;5.13;;;;;;;10.40;59.37;102858.84;6078735;23;20329;-74
2023/05/03 06:54:00;;;;;;;9.18;4.55;;;;;;;10.51;59.72;102852.94;6128913;23;20017;-74
2023/05/03 06:56:27;;;;;;;7.82;4.60;;;;;;;10.61;59.98;102849.63;6103951;23;20009;-74
2023/05/03 06:58:52;;;;;;;11.38;4.90;;;;;;;10.68;57.52;102859.38;6104759;23;20016;-74
2023/05/03 07:01:19;;;;;;;8.68;4.50;;;;;;;10.71;59.09;102853.34;6079802;23;20013;-75
2023/05/03 07:03:45;;;;;;;8.63;4.97;;;;;;;10.78;56.90;102851.72;6126979;23;20014;-74
2023/05/03 07:06:10;;;;;;;7.47;4.57;;;;;;;10.77;56.30;102845.56;6102235;23;20403;-74
2023/05/03 07:08:36;;;;;;;10.40;4.50;;;;;;;10.71;57.71;102851.59;6104470;23;20036;-74
2023/05/03 07:11:01;;;;;;;7.57;4.38;;;;;;;10.80;58.02;102853.50;6104201;23;20016;-74
2023/05/03 07:13:27;;;;;;;7.22;4.60;;;;;;;10.86;57.01;102850.09;6104186;23;20029;-74
2023/05/03 07:15:52;;;;;;;7.85;4.30;;;;;;;11.12;58.34;102857.59;6079357;23;20092;-75
2023/05/03 07:18:17;;;;;;;9.43;4.75;;;;;;;11.22;56.01;102856.91;6103784;23;20083;-75
2023/05/03 07:20:45;;;;;;;7.38;4.15;;;;;;;11.14;56.73;102845.41;6103052;23;20037;-74
2023/05/03 07:23:10;;;;;;;8.05;4.00;;;;;;;11.20;55.49;102850.75;6080599;23;20013;-74
2023/05/03 07:25:38;;;;;;;11.00;3.65;;;;;;;11.23;56.18;102848.16;6080221;23;20093;-74
2023/05/03 07:28:03;;;;;;;11.80;4.50;;;;;;;11.37;54.53;102870.28;6104225;23;20016;-75
2023/05/03 07:30:29;;;;;;;7.47;3.80;;;;;;;11.35;56.16;102860.63;6128168;23;20101;-74
2023/05/03 07:32:54;;;;;;;6.28;3.90;;;;;;;11.32;54.11;102861.47;6104091;23;20009;-74
2023/05/03 07:35:21;;;;;;;7.22;3.78;;;;;;;11.14;54.36;102866.41;6102871;23;20421;-74
2023/05/03 07:37:47;;;;;;;7.88;4.07;;;;;;;11.06;54.27;102855.72;6103876;23;20415;-74
2023/05/03 07:40:13;;;;;;;7.70;4.03;;;;;;;11.11;55.99;102850.59;6079027;23;20013;-73
2023/05/03 07:42:38;;;;;;;10.13;4.60;;;;;;;11.25;60.72;102843.84;6103517;23;20012;-73
2023/05/03 07:45:04;;;;;;;9.45;4.03;;;;;;;11.30;55.42;102852.66;6080069;23;20009;-73
2023/05/03 07:47:30;;;;;;;9.32;4.32;;;;;;;11.43;57.18;102844.16;6080120;23;20010;-74
2023/05/03 07:49:55;;;;;;;9.32;5.38;;;;;;;11.34;56.04;102838.75;6079164;23;20076;-73
2023/05/03 07:52:21;;;;;;;8.95;4.30;;;;;;;11.35;53.88;102840.53;6102771;23;20017;-74
2023/05/03 07:54:46;;;;;;;7.55;4.15;;;;;;;11.46;55.38;102831.94;6080162;23;20020;-73
2023/05/03 07:57:14;;;;;;;10.80;4.85;;;;;;;11.61;56.35;102832.19;6080141;23;20005;-73
2023/05/03 07:59:39;;;;;;;6.78;4.03;;;;;;;11.71;53.77;102834.09;6127844;23;20010;-74
2023/05/03 08:02:05;;;;;;;9.02;4.13;;;;;;;11.79;54.09;102832.47;6078541;23;20013;-74
2023/05/03 08:04:30;;;;;;;10.02;4.30;;;;;;;11.64;52.49;102821.75;6101072;23;20020;-73
2023/05/03 08:06:59;;;;;;;10.82;3.90;;;;;;;11.39;53.79;102815.19;6079000;23;20010;-74
2023/05/03 08:09:27;;;;;;;8.15;3.90;;;;;;;11.64;54.68;102802.44;6104010;23;20092;-73
2023/05/03 08:11:53;;;;;;;8.45;4.15;;;;;;;11.72;56.77;102820.13;6080361;23;20021;-74
2023/05/03 08:14:19;;;;;;;10.13;3.60;;;;;;;11.59;53.78;102812.88;6103193;23;20101;-73
2023/05/03 08:16:44;;;;;;;7.93;3.63;;;;;;;11.73;55.65;102797.34;6103768;23;20088;-73
2023/05/03 08:19:10;;;;;;;5.88;3.78;;;;;;;11.84;54.22;102805.38;6103742;23;20044;-74
2023/05/03 08:21:36;;;;;;;9.43;3.63;;;;;;;11.87;52.64;102805.44;6079141;23;20013;-73
2023/05/03 08:24:04;;;;;;;7.32;3.47;;;;;;;11.87;50.47;102782.66;6104160;23;20080;-73
2023/05/03 08:26:30;;;;;;;7.13;4.18;;;;;;;11.95;54.92;102802.09;6103723;23;20121;-73
2023/05/03 08:28:56;;;;;;;7.88;3.35;;;;;;;12.12;53.85;102799.69;6103945;23;20089;-73
2023/05/03 08:31:21;;;;;;;7.38;3.72;;;;;;;12.09;51.25;102804.88;6103821;23;20538;-73
2023/05/03 08:33:46;;;;;;;9.20;3.70;;;;;;;12.20;50.62;102789.28;6127526;23;20013;-74
2023/05/03 08:36:12;;;;;;;8.77;3.83;;;;;;;12.39;51.69;102787.75;6077969;23;20013;-73
2023/05/03 08:38:40;;;;;;;5.40;3.53;;;;;;;12.31;51.43;102789.38;6080185;23;20009;-73
2023/05/03 08:41:21;;;;;;;8.93;3.88;;;;;;;12.36;51.60;102787.72;6104080;23;20106;-74
2023/05/03 08:43:51;;;;;;;8.38;4.35;;;;;;;12.50;52.17;102786.97;6128053;23;20014;-73
2023/05/03 08:46:17;;;;;;;5.95;3.45;;;;;;;12.34;50.07;102799.06;6103014;23;20356;-73
2023/05/03 08:48:46;;;;;;;6.32;3.45;;;;;;;12.21;48.80;102785.78;6103044;23;20010;-73
2023/05/03 08:51:12;;;;;;;6.32;3.55;;;;;;;12.23;50.52;102776.16;6102357;23;20005;-73
2023/05/03 08:53:38;;;;;;;6.70;3.72;;;;;;;12.38;50.92;102780.72;6128978;23;20012;-74
2023/05/03 08:56:08;;;;;;;7.50;3.42;;;;;;;12.20;51.28;102776.13;6105315;23;20037;-73
2023/05/03 08:58:35;;;;;;;8.77;3.78;;;;;;;12.28;50.96;102773.59;6129536;23;20008;-74
2023/05/03 09:01:05;;;;;;;7.90;3.92;;;;;;;12.32;51.11;102785.03;6081046;23;20096;-74
2023/05/03 09:03:31;;;;;;;8.77;3.72;;;;;;;12.47;54.49;102785.22;6081980;23;20009;-73
2023/05/03 09:06:00;;;;;;;7.47;3.80;;;;;;;12.42;48.67;102797.41;6080954;23;20006;-73
2023/05/03 09:08:30;;;;;;;8.05;3.80;;;;;;;12.50;49.97;102797.50;6106399;23;20021;-73
2023/05/03 09:10:56;;;;;;;9.70;3.70;;;;;;;12.55;48.73;102786.16;6129706;23;20005;-73
2023/05/03 09:13:31;;;;;;;8.40;3.92;;;;;;;12.76;50.45;102796.03;6080839;23;20021;-73
2023/05/03 09:15:57;;;;;;;8.95;4.60;;;;;;;12.79;49.39;102788.19;6081415;23;20040;-74
2023/05/03 09:18:23;;;;;;;5.50;3.85;;;;;;;12.51;50.13;102792.25;6080824;23;20348;-73
2023/05/03 09:20:50;;;;;;;6.40;3.83;;;;;;;12.75;49.96;102794.28;6080144;23;20012;-73
2023/05/03 09:23:25;;;;;;;7.93;3.85;;;;;;;12.96;51.33;102790.97;6129861;23;20006;-73
2023/05/03 09:25:51;;;;;;;8.35;4.00;;;;;;;12.96;48.65;102800.63;6129529;23;20006;-74
2023/05/03 09:28:20;;;;;;;8.85;3.92;;;;;;;13.05;48.29;102797.22;6104577;23;20450;-74
2023/05/03 09:30:47;;;;;;;7.57;3.90;;;;;;;13.12;48.02;102791.13;6128567;23;20453;-74
2023/05/03 09:33:20;;;;;;;7.60;4.05;;;;;;;13.06;47.81;102801.59;6105012;23;20010;-74
2023/05/03 09:36:02;;;;;;;9.50;3.45;;;;;;;13.01;48.37;102793.66;6128516;23;20311;-73
2023/05/03 09:38:33;;;;;;;7.25;3.38;;;;;;;13.33;48.24;102790.41;6128839;23;20344;-74
2023/05/03 09:41:00;;;;;;;8.43;3.70;;;;;;;13.33;47.63;102785.16;6128912;23;20345;-73
2023/05/03 09:43:26;;;;;;;7.85;3.35;;;;;;;13.40;45.74;102786.97;6127060;23;20024;-74
2023/05/03 09:45:51;;;;;;;8.82;3.50;;;;;;;13.23;47.11;102783.31;6077660;23;20032;-74
2023/05/03 09:48:19;;;;;;;6.45;3.63;;;;;;;13.12;47.19;102791.13;6081192;23;20447;-74
2023/05/03 09:50:45;;;;;;;5.75;3.80;;;;;;;13.06;47.91;102784.06;6080862;23;20052;-74
2023/05/03 09:53:11;;;;;;;6.53;3.65;;;;;;;13.18;47.89;102775.38;6105058;23;20439;-74
2023/05/03 09:55:38;;;;;;;7.97;4.53;;;;;;;13.08;46.42;102774.41;6080817;23;20024;-74
2023/05/03 09:58:05;;;;;;;6.63;3.78;;;;;;;13.39;48.68;102769.44;6105299;23;20009;-74
2023/05/03 10:00:41;;;;;;;5.32;3.70;;;;;;;13.44;50.50;102778.25;6128383;23;20006;-74
2023/05/03 10:03:11;;;;;;;6.45;3.97;;;;;;;13.40;48.87;102776.44;6128166;23;20002;-73
2023/05/03 10:05:43;;;;;;;8.10;4.05;;;;;;;13.46;49.23;102765.97;6102857;23;20439;-74
2023/05/03 10:08:11;;;;;;;6.68;3.90;;;;;;;13.67;47.97;102759.94;6128512;23;20005;-74
2023/05/03 10:10:42;;;;;;;9.50;3.75;;;;;;;13.61;47.53;102766.97;6104482;23;20088;-75
2023/05/03 10:13:08;;;;;;;11.63;4.28;;;;;;;13.50;49.59;102769.50;6128503;23;20151;-74
2023/05/03 10:15:36;;;;;;;8.15;4.00;;;;;;;13.61;48.60;102769.59;6079924;23;20089;-74
2023/05/03 10:18:06;;;;;;;8.88;3.90;;;;;;;13.81;48.44;102769.72;6104555;23;20013;-74
2023/05/03 10:21:11;;;;;;;9.15;4.00;;;;;;;13.81;48.15;102770.59;6126827;23;20344;-74
2023/05/03 10:24:11;;;;;;;10.02;3.60;;;;;;;13.80;46.78;102778.47;6119451;23;20012;-74
2023/05/03 10:26:56;;;;;;;7.90;3.85;;;;;;;13.79;48.97;102761.81;6128851;23;20009;-74
2023/05/03 10:29:44;;;;;;;7.20;4.00;;;;;;;14.17;50.40;102762.84;6104179;23;20104;-74
2023/05/03 10:32:29;;;;;;;7.43;4.53;;;;;;;14.45;48.84;102761.19;6128506;23;20005;-74
2023/05/03 10:35:09;;;;;;;8.68;4.10;;;;;;;14.41;45.56;102762.06;6128836;23;20456;-74
2023/05/03 10:37:35;;;;;;;;;;;;;;;14.53;47.64;102775.25;6128966;23;20019;-74
2023/05/03 10:40:16;;;;;;;7.30;4.03;;;;;;;14.23;48.54;102770.78;6128464;23;19916;-74
2023/05/03 10:42:51;;;;;;;8.82;4.40;;;;;;;14.06;46.17;102767.19;6104408;23;20013;-73
2023/05/03 10:45:23;;;;;;;6.32;4.13;;;;;;;14.08;46.02;102771.59;6104741;23;20029;-74
2023/05/03 10:48:10;;;;;;;8.95;4.18;;;;;;;14.06;47.25;102765.44;6128229;23;20085;-73
2023/05/03 10:50:40;;;;;;;6.78;3.92;;;;;;;14.02;47.06;102771.56;6126399;23;20072;-74
2023/05/03 10:53:06;;;;;;;7.63;4.50;;;;;;;13.97;46.23;102770.66;6128222;23;20017;-74
2023/05/03 10:55:33;;;;;;;7.88;4.32;;;;;;;13.98;49.61;102767.16;6102488;23;20009;-74
2023/05/03 10:58:00;;;;;;;8.57;4.60;;;;;;;13.83;46.57;102778.50;6128289;23;20044;-73
2023/05/03 11:00:31;;;;;;;8.75;4.20;;;;;;;14.02;48.81;102761.91;6127652;23;20490;-74
2023/05/03 11:03:16;;;;;;;8.75;4.53;;;;;;;14.10;45.78;102766.34;6128733;23;20084;-74
2023/05/03 11:05:42;;;;;;;5.43;4.10;;;;;;;14.26;46.04;102754.97;6126952;23;20343;-74
2023/05/03 11:08:08;;;;;;;8.10;4.03;;;;;;;14.28;44.99;102753.22;6080459;23;20084;-73
2023/05/03 11:10:34;;;;;;;7.72;4.57;;;;;;;14.35;46.64;102764.66;6127650;23;20033;-74
2023/05/03 11:12:59;;;;;;;8.95;4.47;;;;;;;14.36;48.59;102763.78;6128484;23;20016;-74
2023/05/03 11:15:25;;;;;;;8.73;4.25;;;;;;;14.28;45.58;102752.31;6079217;23;20384;-74
2023/05/03 11:17:53;;;;;;;7.07;4.25;;;;;;;14.27;46.06;102751.47;6080230;23;20092;-74
2023/05/03 11:20:19;;;;;;;6.30;4.05;;;;;;;14.14;44.49;102745.25;6078259;23;20048;-73
2023/05/03 11:22:46;;;;;;;8.35;4.45;;;;;;;13.70;46.39;102732.75;6154056;23;20098;-73
2023/05/03 11:25:12;;;;;;;7.38;4.15;;;;;;;13.86;45.95;102734.59;6079897;23;20283;-74
2023/05/03 11:27:40;;;;;;;8.90;4.32;;;;;;;14.01;47.15;102740.81;6104267;23;20022;-73